createdAt,value
2019-04-29T00:01:36.835Z,102603.16
2019-04-29T00:04:02.799Z,102604.06
2019-04-29T00:06:28.747Z,102604.95
2019-04-29T00:08:54.744Z,102605.38
2019-04-29T00:11:20.810Z,102596.14
2019-04-29T00:13:46.761Z,102589.13
2019-04-29T00:16:31.418Z,102584.70
2019-04-29T00:19:02.263Z,102590.44
2019-04-29T00:21:28.375Z,102595.73
2019-04-29T00:24:03.533Z,102594.84
2019-04-29T00:26:22.417Z,102590.45
2019-04-29T00:28:50.410Z,102591.31
2019-04-29T00:31:16.267Z,102594.88
2019-04-29T00:33:42.377Z,102589.16
2019-04-29T00:36:08.415Z,102582.08
2019-04-29T00:38:36.327Z,102582.55
2019-04-29T00:41:04.373Z,102580.78
2019-04-29T00:43:38.211Z,102585.22
2019-04-29T00:46:04.509Z,102590.93
2019-04-29T00:48:30.402Z,102590.04
2019-04-29T00:50:56.544Z,102583.44
2019-04-29T00:53:22.645Z,102578.15
2019-04-29T00:55:50.077Z,102575.08
2019-04-29T00:58:16.106Z,102581.67
2019-04-29T01:00:42.443Z,102582.09
2019-04-29T01:03:08.662Z,102581.66
2019-04-29T01:05:35.542Z,102572.84
2019-04-29T01:08:01.523Z,102575.06
2019-04-29T01:10:27.509Z,102575.95
2019-04-29T01:12:53.433Z,102572.42
2019-04-29T01:15:19.552Z,102578.14
2019-04-29T01:17:45.749Z,102569.36
2019-04-29T01:20:11.890Z,102574.19
2019-04-29T01:22:39.722Z,102568.48
2019-04-29T01:25:05.689Z,102568.91
2019-04-29T01:27:33.588Z,102564.53
2019-04-29T01:29:59.436Z,102568.06
2019-04-29T01:32:25.396Z,102560.58
2019-04-29T01:34:54.729Z,102565.41
2019-04-29T01:37:22.578Z,102561.02
2019-04-29T01:39:50.437Z,102569.37
2019-04-29T01:42:21.215Z,102566.30
2019-04-29T01:44:47.064Z,102563.25
2019-04-29T01:47:13.035Z,102561.47
2019-04-29T01:49:38.965Z,102554.45
2019-04-29T01:52:04.818Z,102553.14
2019-04-29T01:54:30.758Z,102560.64
2019-04-29T01:56:56.747Z,102559.75
2019-04-29T01:59:22.611Z,102553.58
2019-04-29T02:01:48.584Z,102553.16
2019-04-29T02:04:14.504Z,102547.88
2019-04-29T02:06:40.505Z,102542.59
2019-04-29T02:09:10.060Z,102552.27
2019-04-29T02:11:36.121Z,102515.41
2019-04-29T02:14:02.301Z,102549.64
2019-04-29T02:16:28.175Z,102548.79
2019-04-29T02:18:54.189Z,102547.48
2019-04-29T02:21:20.061Z,102544.39
2019-04-29T02:23:48.033Z,102538.70
2019-04-29T02:26:13.930Z,102539.56
2019-04-29T02:28:39.887Z,102540.89
2019-04-29T02:31:24.205Z,102542.67
2019-04-29T02:33:50.166Z,102541.79
2019-04-29T02:36:16.387Z,102535.63
2019-04-29T02:38:46.794Z,102533.88
2019-04-29T02:41:17.425Z,102532.55
2019-04-29T02:43:45.163Z,102531.23
2019-04-29T02:46:11.259Z,102538.72
2019-04-29T02:48:37.138Z,102537.40
2019-04-29T02:51:03.127Z,102532.13
2019-04-29T02:53:29.070Z,102528.16
2019-04-29T02:55:56.868Z,102537.83
2019-04-29T02:58:30.504Z,102535.61
2019-04-29T03:01:04.271Z,102534.30
2019-04-29T03:03:32.143Z,102535.63
2019-04-29T03:05:59.988Z,102531.23
2019-04-29T03:08:25.961Z,102526.39
2019-04-29T03:10:52.004Z,102523.76
2019-04-29T03:13:18.021Z,102526.86
2019-04-29T03:15:44.011Z,102518.95
2019-04-29T03:18:10.063Z,102519.82
2019-04-29T03:20:40.835Z,102520.30
2019-04-29T03:23:08.632Z,102518.09
2019-04-29T03:25:34.487Z,102513.70
2019-04-29T03:28:00.384Z,102513.30
2019-04-29T03:30:26.279Z,102508.03
2019-04-29T03:32:52.258Z,102507.59
2019-04-29T03:35:18.112Z,102504.95
2019-04-29T03:37:44.498Z,102503.63
2019-04-29T03:40:10.484Z,102504.48
2019-04-29T03:42:36.357Z,102507.58
2019-04-29T03:45:03.416Z,102506.69
2019-04-29T03:47:29.246Z,102503.62
2019-04-29T03:49:55.206Z,102500.51
2019-04-29T03:52:21.054Z,102488.67
2019-04-29T03:54:46.984Z,102492.62
2019-04-29T03:57:14.503Z,102482.50
2019-04-29T03:59:40.449Z,102479.85
2019-04-29T04:02:08.359Z,102470.20
2019-04-29T04:04:54.232Z,102470.18
2019-04-29T04:07:38.672Z,102472.39
2019-04-29T04:10:05.446Z,102468.87
2019-04-29T04:12:31.293Z,102464.91
2019-04-29T04:14:57.131Z,102463.62
2019-04-29T04:17:27.525Z,102460.51
2019-04-29T04:19:53.709Z,102460.95
2019-04-29T04:22:19.664Z,102455.21
2019-04-29T04:24:45.528Z,102452.14
2019-04-29T04:27:11.509Z,102454.78
2019-04-29T04:29:37.396Z,102455.20
2019-04-29T04:32:03.496Z,102458.75
2019-04-29T04:34:29.487Z,102453.48
2019-04-29T04:36:55.372Z,102452.16
2019-04-29T04:39:21.206Z,102456.11
2019-04-29T04:41:47.077Z,102462.24
2019-04-29T04:44:13.063Z,102455.63
2019-04-29T04:46:39.369Z,102457.78
2019-04-29T04:49:05.287Z,102454.29
2019-04-29T04:51:31.160Z,102453.38
2019-04-29T04:53:57.064Z,102446.34
2019-04-29T04:56:22.923Z,102446.33
2019-04-29T04:58:48.888Z,102436.66
2019-04-29T05:01:14.786Z,102438.38
2019-04-29T05:03:40.783Z,102438.78
2019-04-29T05:06:06.729Z,102430.83
2019-04-29T05:08:32.732Z,102429.94
2019-04-29T05:10:58.573Z,102431.20
2019-04-29T05:13:28.392Z,102432.47
2019-04-29T05:15:52.138Z,102428.02
2019-04-29T05:18:17.989Z,102432.78
2019-04-29T05:20:43.848Z,102434.51
2019-04-29T05:23:09.821Z,102441.95
2019-04-29T05:25:35.689Z,102437.04
2019-04-29T05:28:01.997Z,102436.96
2019-04-29T05:30:27.944Z,102439.54
2019-04-29T05:32:53.891Z,102440.36
2019-04-29T05:35:40.430Z,102440.70
2019-04-29T05:38:23.118Z,102444.17
2019-04-29T05:40:50.703Z,102424.24
2019-04-29T05:43:21.339Z,102429.42
2019-04-29T05:46:07.388Z,102438.56
2019-04-29T05:48:33.417Z,102442.42
2019-04-29T05:51:01.169Z,102436.55
2019-04-29T05:53:28.940Z,102444.34
2019-04-29T05:55:54.919Z,102443.31
2019-04-29T05:58:20.799Z,102445.82
2019-04-29T06:00:51.455Z,102445.23
2019-04-29T06:03:17.332Z,102441.53
2019-04-29T06:05:43.196Z,102431.66
2019-04-29T06:08:09.351Z,102442.52
2019-04-29T06:10:35.347Z,102445.91
2019-04-29T06:13:01.225Z,102440.00
2019-04-29T06:15:27.104Z,102439.39
2019-04-29T06:17:52.979Z,102434.31
2019-04-29T06:20:22.614Z,102438.97
2019-04-29T06:22:46.606Z,102448.01
2019-04-29T06:25:12.576Z,102445.98
2019-04-29T06:27:38.520Z,102446.17
2019-04-29T06:30:05.845Z,102445.94
2019-04-29T06:32:31.859Z,102442.98
2019-04-29T06:34:57.748Z,102444.02
2019-04-29T06:37:23.648Z,102450.44
2019-04-29T06:39:49.627Z,102451.06
2019-04-29T06:42:19.449Z,102447.25
2019-04-29T06:44:44.437Z,102444.83
2019-04-29T06:47:11.254Z,102447.17
2019-04-29T06:49:37.259Z,102445.99
2019-04-29T06:52:03.094Z,102443.88
2019-04-29T06:54:30.170Z,102449.27
2019-04-29T06:56:56.032Z,102450.22
2019-04-29T06:59:21.908Z,102452.97
2019-04-29T07:01:47.775Z,102449.94
2019-04-29T07:04:13.652Z,102450.05
2019-04-29T07:06:39.483Z,102454.11
2019-04-29T07:09:06.349Z,102449.24
2019-04-29T07:11:36.629Z,102449.77
2019-04-29T07:13:59.989Z,102453.45
2019-04-29T07:16:26.811Z,102451.40
2019-04-29T07:18:55.855Z,102448.77
2019-04-29T07:21:21.694Z,102440.34
2019-04-29T07:23:47.582Z,102439.52
2019-04-29T07:26:13.661Z,102443.96
2019-04-29T07:28:39.494Z,102439.52
2019-04-29T07:31:05.393Z,102442.21
2019-04-29T07:33:31.264Z,102435.58
2019-04-29T07:36:10.075Z,102437.83
2019-04-29T07:38:24.792Z,102436.08
2019-04-29T07:40:50.706Z,102435.75
2019-04-29T07:43:16.607Z,102432.83
2019-04-29T07:45:50.511Z,102427.55
2019-04-29T07:48:16.505Z,102428.55
2019-04-29T07:50:42.753Z,102428.65
2019-04-29T07:53:08.613Z,102426.55
2019-04-29T07:55:34.487Z,102425.34
2019-04-29T07:58:00.458Z,102429.41
2019-04-29T08:00:30.605Z,102429.88
2019-04-29T08:02:56.638Z,102428.70
2019-04-29T08:05:22.489Z,102428.72
2019-04-29T08:07:48.550Z,102433.31
2019-04-29T08:10:23.446Z,102433.47
2019-04-29T08:12:42.364Z,102437.56
2019-04-29T08:15:10.183Z,102439.81
2019-04-29T08:17:37.017Z,102443.87
2019-04-29T08:20:05.230Z,102440.34
2019-04-29T08:22:31.918Z,102443.42
2019-04-29T08:24:57.859Z,102450.62
2019-04-29T08:27:23.935Z,102444.94
2019-04-29T08:29:49.794Z,102451.73
2019-04-29T08:32:15.639Z,102448.27
2019-04-29T08:34:41.587Z,102445.27
2019-04-29T08:37:07.404Z,102445.39
2019-04-29T08:39:33.399Z,102445.86
2019-04-29T08:42:03.873Z,102443.23
2019-04-29T08:44:30.810Z,102444.66
2019-04-29T08:46:58.755Z,102447.77
2019-04-29T08:49:24.662Z,102442.56
2019-04-29T08:51:50.601Z,102449.73
2019-04-29T08:54:19.951Z,102446.16
2019-04-29T08:57:01.681Z,102445.28
2019-04-29T08:59:12.696Z,102452.44
2019-04-29T09:01:38.736Z,102446.63
2019-04-29T09:04:04.846Z,102449.41
2019-04-29T09:06:32.570Z,102447.70
2019-04-29T09:08:59.706Z,102445.46
2019-04-29T09:11:25.832Z,102451.73
2019-04-29T09:13:51.981Z,102448.67
2019-04-29T09:16:18.080Z,102445.61
2019-04-29T09:18:43.982Z,102455.36
2019-04-29T09:21:09.836Z,102448.11
2019-04-29T09:23:37.416Z,102444.95
2019-04-29T09:26:14.729Z,102450.23
2019-04-29T09:28:40.883Z,102446.20
2019-04-29T09:31:06.891Z,102444.22
2019-04-29T09:33:32.937Z,102444.95
2019-04-29T09:35:58.923Z,102447.36
2019-04-29T09:38:24.969Z,102457.66
2019-04-29T09:40:59.690Z,102452.64
2019-04-29T09:43:32.922Z,102455.62
2019-04-29T09:46:00.962Z,102455.55
2019-04-29T09:48:26.870Z,102457.56
2019-04-29T09:50:52.803Z,102457.98
2019-04-29T09:53:18.822Z,102456.85
2019-04-29T09:55:45.167Z,102459.45
2019-04-29T09:58:11.086Z,102457.16
2019-04-29T10:00:40.651Z,102451.97
2019-04-29T10:03:14.594Z,102456.02
2019-04-29T10:05:42.625Z,102452.55
2019-04-29T10:08:08.940Z,102456.33
2019-04-29T10:10:37.271Z,102451.89
2019-04-29T10:13:03.506Z,102452.84
2019-04-29T10:15:47.726Z,102457.86
2019-04-29T10:18:29.771Z,102457.88
2019-04-29T10:21:03.033Z,102455.75
2019-04-29T10:23:29.923Z,102454.47
2019-04-29T10:25:55.853Z,102458.16
2019-04-29T10:28:21.800Z,102454.57
2019-04-29T10:30:47.979Z,102451.30
2019-04-29T10:33:17.561Z,102458.50
2019-04-29T10:35:45.193Z,102457.55
2019-04-29T10:38:10.137Z,102466.13
2019-04-29T10:40:40.513Z,102465.66
2019-04-29T10:43:11.349Z,102468.36
2019-04-29T10:45:58.538Z,102470.86
2019-04-29T10:48:41.141Z,102472.31
2019-04-29T10:51:08.992Z,102475.62
2019-04-29T10:53:35.226Z,102470.88
2019-04-29T10:56:05.648Z,102472.16
2019-04-29T10:58:31.171Z,102466.27
2019-04-29T11:01:18.875Z,102473.50
2019-04-29T11:03:44.843Z,102478.05
2019-04-29T11:06:11.279Z,102470.52
2019-04-29T11:08:43.217Z,102472.91
2019-04-29T11:11:22.189Z,102477.17
2019-04-29T11:13:46.910Z,102471.19
2019-04-29T11:16:07.006Z,102473.52
2019-04-29T11:18:33.018Z,102476.12
2019-04-29T11:20:59.039Z,102478.53
2019-04-29T11:23:29.642Z,102477.26
2019-04-29T11:26:12.392Z,102482.88
2019-04-29T11:28:38.543Z,102476.98
2019-04-29T11:31:05.078Z,102479.09
2019-04-29T11:33:35.525Z,102483.72
2019-04-29T11:36:08.869Z,102478.13
2019-04-29T11:38:38.364Z,102476.77
2019-04-29T11:41:03.298Z,102476.64
2019-04-29T11:43:29.334Z,102478.47
2019-04-29T11:45:55.727Z,102475.94
2019-04-29T11:48:21.922Z,102482.02
2019-04-29T11:50:54.484Z,102480.84
2019-04-29T11:53:17.946Z,102481.89
2019-04-29T11:55:46.348Z,102477.27
2019-04-29T11:58:13.951Z,102473.38
2019-04-29T12:00:47.511Z,102474.42
2019-04-29T12:03:19.025Z,102479.73
2019-04-29T12:05:50.498Z,102477.02
2019-04-29T12:08:18.288Z,102469.31
2019-04-29T12:10:52.032Z,102474.18
2019-04-29T12:13:14.362Z,102470.29
2019-04-29T12:15:45.047Z,102473.57
2019-04-29T12:18:18.001Z,102474.92
2019-04-29T12:21:03.773Z,102471.06
2019-04-29T12:23:29.783Z,102477.11
2019-04-29T12:25:58.760Z,102476.53
2019-04-29T12:28:26.888Z,102477.89
2019-04-29T12:30:53.732Z,102468.05
2019-04-29T12:33:21.843Z,102478.09
2019-04-29T12:36:05.182Z,102478.30
2019-04-29T12:38:49.077Z,102474.63
2019-04-29T12:41:20.602Z,102481.21
2019-04-29T12:43:48.715Z,102483.71
2019-04-29T12:46:35.461Z,102478.67
2019-04-29T12:49:03.614Z,102474.04
2019-04-29T12:51:29.480Z,102472.48
2019-04-29T12:53:55.542Z,102461.66
2019-04-29T12:56:32.405Z,102457.97
2019-04-29T12:58:59.600Z,102447.61
2019-04-29T13:01:51.576Z,102452.50
2019-04-29T13:04:23.806Z,102442.23
2019-04-29T13:06:51.591Z,102449.27
2019-04-29T13:09:24.942Z,102447.28
2019-04-29T13:11:58.065Z,102456.14
2019-04-29T13:14:20.690Z,102455.47
2019-04-29T13:16:50.890Z,102459.73
2019-04-29T13:19:25.060Z,102452.92
2019-04-29T13:21:49.221Z,102450.89
2019-04-29T13:24:24.074Z,102456.61
2019-04-29T13:26:43.290Z,102448.30
2019-04-29T13:29:09.262Z,102451.52
2019-04-29T13:31:38.396Z,102453.90
2019-04-29T13:34:22.756Z,102447.42
2019-04-29T13:36:33.357Z,102451.41
2019-04-29T13:38:59.392Z,102460.63
2019-04-29T13:41:26.039Z,102452.31
2019-04-29T13:43:54.004Z,102448.77
2019-04-29T13:46:27.883Z,102450.72
2019-04-29T13:49:06.124Z,102441.28
2019-04-29T13:51:35.177Z,102440.50
2019-04-29T13:53:55.311Z,102438.98
2019-04-29T13:56:35.072Z,102439.64
2019-04-29T13:58:49.600Z,102438.84
2019-04-29T14:01:23.926Z,102441.65
2019-04-29T14:03:49.562Z,102436.35
2019-04-29T14:06:18.693Z,102442.23
2019-04-29T14:08:43.561Z,102437.65
2019-04-29T14:11:09.523Z,102449.00
2019-04-29T14:13:38.934Z,102441.66
2019-04-29T14:16:03.623Z,102443.93
2019-04-29T14:18:29.639Z,102444.20
2019-04-29T14:20:55.555Z,102435.92
2019-04-29T14:23:21.657Z,102438.16
2019-04-29T14:25:47.681Z,102438.02
2019-04-29T14:28:13.702Z,102433.87
2019-04-29T14:30:43.732Z,102442.03
2019-04-29T14:33:07.743Z,102438.44
2019-04-29T14:35:38.483Z,102446.70
2019-04-29T14:38:05.222Z,102447.34
2019-04-29T14:40:32.217Z,102447.88
2019-04-29T14:43:26.892Z,102448.69
2019-04-29T14:45:46.210Z,102446.17
2019-04-29T14:48:16.942Z,102452.28
2019-04-29T14:50:45.080Z,102449.94
2019-04-29T14:53:11.013Z,102443.55
2019-04-29T14:55:37.040Z,102444.86
2019-04-29T14:58:03.384Z,102442.59
2019-04-29T15:00:34.163Z,102434.72
2019-04-29T15:03:01.047Z,102393.55
2019-04-29T15:05:27.970Z,102426.00
2019-04-29T15:07:54.027Z,102425.31
2019-04-29T15:10:20.207Z,102420.81
2019-04-29T15:13:19.675Z,102431.19
2019-04-29T15:15:41.970Z,102426.52
2019-04-29T15:18:18.516Z,102425.16
2019-04-29T15:20:48.177Z,102420.44
2019-04-29T15:23:27.677Z,102416.92
2019-04-29T15:25:42.140Z,102418.08
2019-04-29T15:28:08.164Z,102412.64
2019-04-29T15:30:36.826Z,102414.37
2019-04-29T15:33:02.303Z,102416.41
2019-04-29T15:35:28.251Z,102421.08
2019-04-29T15:37:54.267Z,102421.78
2019-04-29T15:40:25.446Z,102420.16
2019-04-29T15:42:51.142Z,102427.02
2019-04-29T15:45:16.108Z,102429.87
2019-04-29T15:47:45.727Z,102426.05
2019-04-29T15:50:18.514Z,102417.20
2019-04-29T15:52:38.946Z,102419.11
2019-04-29T15:55:04.970Z,102425.55
2019-04-29T15:57:33.781Z,102425.08
2019-04-29T16:00:03.760Z,102417.03
2019-04-29T16:02:27.781Z,102423.71
2019-04-29T16:05:04.779Z,102415.42
2019-04-29T16:07:33.509Z,102415.03
2019-04-29T16:10:01.327Z,102422.34
2019-04-29T16:12:32.123Z,102422.16
2019-04-29T16:14:58.022Z,102421.56
2019-04-29T16:17:23.918Z,102418.84
2019-04-29T16:19:49.870Z,102422.27
2019-04-29T16:22:19.985Z,102418.05
2019-04-29T16:24:43.626Z,102413.36
2019-04-29T16:27:10.523Z,102408.94
2019-04-29T16:29:36.557Z,102408.39
2019-04-29T16:32:05.069Z,102412.36
2019-04-29T16:34:30.793Z,102411.36
2019-04-29T16:36:56.710Z,102421.97
2019-04-29T16:39:22.812Z,102421.03
2019-04-29T16:42:01.317Z,102413.06
2019-04-29T16:46:49.831Z,102413.14
2019-04-29T16:49:16.033Z,102423.22
2019-04-29T16:51:42.052Z,102421.12
2019-04-29T16:54:12.704Z,102421.84
2019-04-29T16:56:35.980Z,102418.07
2019-04-29T16:59:09.206Z,102412.52
2019-04-29T17:01:29.829Z,102415.77
2019-04-29T17:03:56.061Z,102404.73
2019-04-29T17:06:22.087Z,102405.31
2019-04-29T17:09:03.369Z,102417.92
2019-04-29T17:11:40.264Z,102416.31
2019-04-29T17:14:10.230Z,102405.34
2019-04-29T17:16:34.195Z,102402.76
2019-04-29T17:19:00.208Z,102375.06
2019-04-29T17:21:26.340Z,102406.95
2019-04-29T17:23:52.379Z,102396.37
2019-04-29T17:26:20.165Z,102397.89
2019-04-29T17:29:11.621Z,102393.61
2019-04-29T17:31:55.920Z,102386.16
2019-04-29T17:34:29.410Z,102391.17
2019-04-29T17:36:44.747Z,102394.02
2019-04-29T17:39:10.845Z,102408.45
2019-04-29T17:41:36.957Z,102406.80
2019-04-29T17:44:05.243Z,102414.48
2019-04-29T17:46:39.040Z,102408.03
2019-04-29T17:49:06.870Z,102405.59
2019-04-29T17:51:34.037Z,102407.95
2019-04-29T17:54:02.208Z,102402.38
2019-04-29T17:56:33.014Z,102399.45
2019-04-29T17:59:01.440Z,102402.34
2019-04-29T18:01:31.937Z,102398.51
2019-04-29T18:04:19.995Z,102401.06
2019-04-29T18:06:51.690Z,102408.09
2019-04-29T18:09:31.753Z,102412.42
2019-04-29T18:11:58.578Z,102403.40
2019-04-29T18:14:25.032Z,102400.51
2019-04-29T18:16:52.780Z,102392.71
2019-04-29T18:19:34.836Z,102391.59
2019-04-29T18:22:17.088Z,102381.52
2019-04-29T18:24:56.772Z,102385.73
2019-04-29T18:27:25.319Z,102385.09
2019-04-29T18:29:51.408Z,102388.81
2019-04-29T18:32:17.518Z,102389.02
2019-04-29T18:34:45.149Z,102386.05
2019-04-29T18:37:11.174Z,102394.21
2019-04-29T18:39:37.715Z,102394.36
2019-04-29T18:42:06.652Z,102398.46
2019-04-29T18:44:32.240Z,102391.94
2019-04-29T18:46:58.357Z,102393.42
2019-04-29T18:49:25.728Z,102387.80
2019-04-29T18:51:51.902Z,102388.34
2019-04-29T18:54:17.741Z,102393.83
2019-04-29T18:56:45.349Z,102385.97
2019-04-29T18:59:11.522Z,102397.22
2019-04-29T19:01:37.552Z,102395.14
2019-04-29T19:04:16.126Z,102393.95
2019-04-29T19:06:40.537Z,102390.09
2019-04-29T19:09:17.485Z,102390.23
2019-04-29T19:11:35.234Z,102390.38
2019-04-29T19:14:01.263Z,102387.37
2019-04-29T19:16:27.585Z,102385.73
2019-04-29T19:19:00.128Z,102378.27
2019-04-29T19:21:23.543Z,102372.16
2019-04-29T19:23:52.675Z,102375.80
2019-04-29T19:26:18.233Z,102369.23
2019-04-29T19:28:45.176Z,102365.87
2019-04-29T19:31:11.218Z,102367.34
2019-04-29T19:33:39.321Z,102376.30
2019-04-29T19:36:08.651Z,102378.65
2019-04-29T19:38:32.973Z,102377.89
2019-04-29T19:40:58.906Z,102372.75
2019-04-29T19:43:25.882Z,102369.81
2019-04-29T19:45:51.759Z,102362.44
2019-04-29T19:48:17.764Z,102362.98
2019-04-29T19:50:45.216Z,102375.93
2019-04-29T19:53:11.093Z,102377.34
2019-04-29T19:55:41.707Z,102371.70
2019-04-29T19:58:07.289Z,102373.69
2019-04-29T20:00:32.916Z,102378.25
2019-04-29T20:02:59.558Z,102376.16
2019-04-29T20:05:31.720Z,102368.30
2019-04-29T20:07:58.350Z,102369.79
2019-04-29T20:10:23.635Z,102363.30
2019-04-29T20:12:53.361Z,102360.76
2019-04-29T20:15:19.125Z,102354.23
2019-04-29T20:17:50.602Z,102364.06
2019-04-29T20:20:21.530Z,102370.42
2019-04-29T20:22:51.067Z,102365.66
2019-04-29T20:25:16.470Z,102369.81
2019-04-29T20:27:43.483Z,102370.36
2019-04-29T20:30:16.560Z,102378.45
2019-04-29T20:32:37.678Z,102368.41
2019-04-29T20:35:08.353Z,102372.07
2019-04-29T20:37:32.888Z,102365.98
2019-04-29T20:40:00.745Z,102374.02
2019-04-29T20:42:26.508Z,102367.45
2019-04-29T20:44:52.645Z,102365.31
2019-04-29T20:47:22.877Z,102364.45
2019-04-29T20:49:46.350Z,102352.17
2019-04-29T20:52:20.238Z,102345.16
2019-04-29T20:54:42.073Z,102347.03
2019-04-29T20:57:17.451Z,102345.70
2019-04-29T20:59:35.932Z,102344.48
2019-04-29T21:02:12.135Z,102352.97
2019-04-29T21:04:38.606Z,102356.58
2019-04-29T21:07:02.465Z,102363.73
2019-04-29T21:09:30.185Z,102361.59
2019-04-29T21:12:02.871Z,102362.55
2019-04-29T21:14:35.355Z,102359.52
2019-04-29T21:17:02.252Z,102349.40
2019-04-29T21:19:29.230Z,102357.84
2019-04-29T21:21:55.207Z,102351.68
2019-04-29T21:24:21.297Z,102348.62
2019-04-29T21:26:47.294Z,102349.50
2019-04-29T21:29:15.887Z,102357.47
2019-04-29T21:31:41.236Z,102356.14
2019-04-29T21:34:07.172Z,102357.91
2019-04-29T21:36:37.832Z,102353.52
2019-04-29T21:39:06.501Z,102357.09
2019-04-29T21:41:39.914Z,102355.80
2019-04-29T21:44:06.479Z,102355.89
2019-04-29T21:46:32.463Z,102352.36
2019-04-29T21:48:58.348Z,102351.54
2019-04-29T21:51:25.563Z,102345.78
2019-04-29T21:53:51.607Z,102349.33
2019-04-29T21:56:17.615Z,102339.59
2019-04-29T21:58:43.622Z,102345.34
2019-04-29T22:01:10.077Z,102343.09
2019-04-29T22:03:36.130Z,102338.67
2019-04-29T22:06:02.107Z,102332.06
2019-04-29T22:08:30.011Z,102328.56
2019-04-29T22:11:04.786Z,102329.48
2019-04-29T22:13:26.406Z,102330.40
2019-04-29T22:16:00.290Z,102322.91
2019-04-29T22:18:35.472Z,102318.96
2019-04-29T22:21:02.130Z,102326.04
2019-04-29T22:23:28.072Z,102317.67
2019-04-29T22:25:54.729Z,102319.44
2019-04-29T22:28:21.715Z,102319.03
2019-04-29T22:30:49.889Z,102313.72
2019-04-29T22:33:15.439Z,102312.83
2019-04-29T22:35:41.254Z,102309.80
2019-04-29T22:38:07.706Z,102303.20
2019-04-29T22:40:41.024Z,102305.41
2019-04-29T22:43:09.804Z,102300.95
2019-04-29T22:45:33.782Z,102302.76
2019-04-29T22:48:14.400Z,102298.30
2019-04-29T22:50:28.000Z,102293.00
2019-04-29T22:52:56.638Z,102295.65
2019-04-29T22:55:21.632Z,102293.47
2019-04-29T22:57:47.617Z,102291.67
2019-04-29T23:00:15.770Z,102302.28
2019-04-29T23:02:41.943Z,102305.83
2019-04-29T23:05:08.100Z,102296.16
2019-04-29T23:07:35.240Z,102300.98
2019-04-29T23:10:02.177Z,102300.98
2019-04-29T23:12:28.035Z,102296.63
2019-04-29T23:14:54.022Z,102293.06
2019-04-29T23:17:19.934Z,102288.67
2019-04-29T23:19:50.636Z,102293.12
2019-04-29T23:22:22.283Z,102294.08
2019-04-29T23:24:51.307Z,102293.26
2019-04-29T23:27:19.620Z,102291.11
2019-04-29T23:29:45.149Z,102289.38
2019-04-29T23:32:11.206Z,102276.58
2019-04-29T23:34:37.175Z,102281.48
2019-04-29T23:37:03.497Z,102287.23
2019-04-29T23:39:29.416Z,102283.28
2019-04-29T23:41:55.505Z,102287.73
2019-04-29T23:44:21.470Z,102280.72
2019-04-29T23:46:47.559Z,102284.23
2019-04-29T23:49:15.405Z,102283.34
2019-04-29T23:51:41.476Z,102277.66
2019-04-29T23:54:08.010Z,102274.56
2019-04-29T23:56:46.594Z,102276.71
2019-04-29T23:59:18.271Z,102282.02
